Time;durP1;ratioP1;P1;durP2;ratioP2;P2;SDS_P1;SDS_P2;PMS_P1;PMS_P2;Temp;Humidity;BMP_temperature;BMP_pressure;BME280_temperature;BME280_humidity;BME280_pressure;Samples;Min_cycle;Max_cycle;Signal;HPM_P1;HPM_P2
2023/05/04 19:17:09;;;;;;;7.95;2.25;;;12.30;1.00;;;;;;6152217;23;20641;-88
2023/05/04 19:19:36;;;;;;;4.90;2.90;;;12.30;1.00;;;;;;6123786;23;20393;-87
2023/05/04 19:22:03;;;;;;;4.70;3.55;;;12.40;1.00;;;;;;6123695;23;20175;-87
2023/05/04 19:24:29;;;;;;;3.55;3.25;;;12.10;1.00;;;;;;6123094;23;20530;-90
2023/05/04 19:26:54;;;;;;;7.85;3.70;;;12.30;1.00;;;;;;6124609;23;20167;-87
2023/05/04 19:29:20;;;;;;;4.60;3.30;;;11.80;1.00;;;;;;6122300;23;20381;-89
2023/05/04 19:31:46;;;;;;;5.68;4.00;;;11.70;1.00;;;;;;6122729;23;20278;-90
2023/05/04 19:34:11;;;;;;;4.18;3.30;;;11.60;1.00;;;;;;6123013;23;20166;-89
2023/05/04 19:36:37;;;;;;;4.10;2.97;;;11.40;1.00;;;;;;6121572;23;20212;-89
2023/05/04 19:39:03;;;;;;;4.47;2.80;;;11.30;1.00;;;;;;6127610;23;20604;-88
2023/05/04 19:41:29;;;;;;;5.30;2.93;;;11.20;1.00;;;;;;6148736;23;20841;-88
2023/05/04 19:43:54;;;;;;;3.78;2.75;;;11.20;1.00;;;;;;6122573;23;20733;-88
2023/05/04 19:46:20;;;;;;;4.32;2.92;;;11.20;1.00;;;;;;6148852;23;20596;-87
2023/05/04 19:48:46;;;;;;;6.07;2.80;;;11.10;1.00;;;;;;6122458;23;20171;-88
2023/05/04 19:51:12;;;;;;;5.50;3.40;;;11.00;1.00;;;;;;6121571;23;20206;-88
2023/05/04 19:53:38;;;;;;;6.82;3.13;;;11.00;1.00;;;;;;6120573;23;20192;-88
2023/05/04 19:56:04;;;;;;;4.63;3.40;;;11.40;1.00;;;;;;6122175;23;20953;-88
2023/05/04 19:58:30;;;;;;;4.50;3.70;;;10.90;1.00;;;;;;6120795;23;20404;-88
2023/05/04 20:00:56;;;;;;;5.43;3.20;;;10.80;1.00;;;;;;6121403;23;20230;-87
2023/05/04 20:03:23;;;;;;;4.40;3.50;;;11.10;1.00;;;;;;6148814;23;20484;-88
2023/05/04 20:05:50;;;;;;;5.60;3.80;;;10.70;1.00;;;;;;6122088;23;20507;-88
2023/05/04 20:08:16;;;;;;;5.67;4.30;;;10.70;1.00;;;;;;6121533;23;20171;-87
2023/05/04 20:10:42;;;;;;;4.00;3.60;;;10.60;1.00;;;;;;6121776;23;20262;-88
2023/05/04 20:13:07;;;;;;;7.80;4.30;;;10.60;1.00;;;;;;6121640;23;20226;-87
2023/05/04 20:15:33;;;;;;;4.70;4.30;;;10.50;1.00;;;;;;6122237;23;20167;-88
2023/05/04 20:17:58;;;;;;;5.67;4.20;;;10.40;1.00;;;;;;6121673;23;20239;-87
2023/05/04 20:20:24;;;;;;;7.93;4.27;;;10.40;1.00;;;;;;6147603;23;20160;-88
2023/05/04 20:22:51;;;;;;;4.50;4.00;;;10.30;1.00;;;;;;6147285;23;20179;-88
2023/05/04 20:25:17;;;;;;;6.80;4.67;;;10.20;1.00;;;;;;6121651;23;20270;-88
2023/05/04 20:27:44;;;;;;;6.67;4.43;;;10.10;1.00;;;;;;6121203;23;20242;-88
2023/05/04 20:30:10;;;;;;;5.53;4.20;;;10.10;1.00;;;;;;6120920;23;20652;-88
2023/05/04 20:32:36;;;;;;;5.13;4.63;;;10.00;1.00;;;;;;6120828;23;20186;-88
2023/05/04 20:35:02;;;;;;;4.77;4.37;;;9.90;1.00;;;;;;6121393;23;20159;-88
2023/05/04 20:37:27;;;;;;;4.73;4.33;;;9.90;1.00;;;;;;6121332;23;20226;-88
2023/05/04 20:39:53;;;;;;;6.77;4.57;;;10.00;1.00;;;;;;6146972;23;20220;-87
2023/05/04 20:42:18;;;;;;;8.43;4.90;;;9.90;1.00;;;;;;6121172;23;20219;-88
2023/05/04 20:44:46;;;;;;;5.43;4.50;;;9.90;1.00;;;;;;6121203;23;20377;-87
2023/05/04 20:47:11;;;;;;;6.50;4.90;;;9.90;1.00;;;;;;6121054;23;20148;-88
2023/05/04 20:49:37;;;;;;;5.67;4.50;;;9.90;1.00;;;;;;6119286;23;20221;-87
2023/05/04 20:52:03;;;;;;;5.10;4.33;;;9.90;1.00;;;;;;6118954;23;20180;-88
2023/05/04 20:54:30;;;;;;;5.37;4.03;;;9.90;1.00;;;;;;6121476;23;20160;-88
2023/05/04 20:56:55;;;;;;;4.33;3.93;;;9.80;1.00;;;;;;6147991;23;20168;-88
2023/05/04 20:59:21;;;;;;;6.27;4.47;;;9.80;1.00;;;;;;6121146;23;20166;-88
2023/05/04 21:01:46;;;;;;;4.77;4.30;;;9.70;1.00;;;;;;6121620;23;20189;-88
2023/05/04 21:04:13;;;;;;;4.87;4.03;;;9.80;1.00;;;;;;6147904;23;20231;-88
2023/05/04 21:06:39;;;;;;;4.93;4.43;;;9.80;1.00;;;;;;6121593;23;20190;-87
2023/05/04 21:09:06;;;;;;;4.70;4.30;;;9.80;1.00;;;;;;6121648;23;20522;-88
2023/05/04 21:11:31;;;;;;;6.47;4.57;;;9.80;1.00;;;;;;6121643;23;20257;-88
2023/05/04 21:13:57;;;;;;;5.30;4.80;;;9.70;1.00;;;;;;6121963;23;20446;-88
2023/05/04 21:16:22;;;;;;;5.43;4.37;;;9.60;1.00;;;;;;6121973;23;20971;-88
2023/05/04 21:18:48;;;;;;;4.73;4.33;;;9.60;1.00;;;;;;6122207;23;20184;-88
2023/05/04 21:21:14;;;;;;;5.23;4.10;;;9.70;1.00;;;;;;6121478;23;20183;-88
2023/05/04 21:23:40;;;;;;;6.77;5.00;;;9.80;1.00;;;;;;6121846;23;20167;-88
2023/05/04 21:26:05;;;;;;;5.13;4.63;;;10.00;1.00;;;;;;6121988;23;20170;-87
2023/05/04 21:28:31;;;;;;;6.57;4.73;;;9.70;1.00;;;;;;6122113;23;20195;-88
2023/05/04 21:30:57;;;;;;;5.70;4.50;;;9.70;1.00;;;;;;6121598;23;20624;-88
2023/05/04 21:33:23;;;;;;;5.73;4.90;;;9.70;1.00;;;;;;6104100;23;20210;-88
2023/05/04 21:35:49;;;;;;;5.00;4.57;;;9.50;1.00;;;;;;6128181;23;20497;-88
2023/05/04 21:38:15;;;;;;;4.80;4.30;;;9.40;1.00;;;;;;6128423;23;20163;-89
2023/05/04 21:40:42;;;;;;;5.80;4.63;;;9.40;1.00;;;;;;6128278;23;20166;-88
2023/05/04 21:43:12;;;;;;;6.57;5.10;;;9.40;1.00;;;;;;6128205;23;20263;-89
2023/05/04 21:45:37;;;;;;;7.17;4.13;;;9.40;1.00;;;;;;6154146;23;20486;-89
2023/05/04 21:48:04;;;;;;;5.40;4.40;;;9.30;1.00;;;;;;6127639;23;20159;-88
2023/05/04 21:50:30;;;;;;;5.30;4.77;;;9.30;1.00;;;;;;6127791;23;20179;-89
2023/05/04 21:52:55;;;;;;;5.57;4.87;;;9.20;1.00;;;;;;6128169;23;20182;-88
2023/05/04 21:55:21;;;;;;;4.57;4.17;;;9.40;1.00;;;;;;6127686;23;20152;-89
2023/05/04 21:57:47;;;;;;;5.67;4.53;;;9.30;1.00;;;;;;6128281;23;20148;-88
2023/05/04 22:00:16;;;;;;;5.47;4.90;;;9.30;1.00;;;;;;6129451;23;20190;-89
2023/05/04 22:02:42;;;;;;;4.90;4.50;;;9.20;1.00;;;;;;6156091;23;20255;-89
2023/05/04 22:05:09;;;;;;;6.50;4.33;;;9.20;1.00;;;;;;6130482;23;20195;-88
2023/05/04 22:07:35;;;;;;;5.57;4.50;;;9.20;1.00;;;;;;6130294;23;20175;-89
2023/05/04 22:10:02;;;;;;;5.20;4.60;;;9.30;1.00;;;;;;6105868;23;20632;-89
2023/05/04 22:12:28;;;;;;;5.60;4.53;;;9.30;1.00;;;;;;6129738;23;20263;-89
2023/05/04 22:14:53;;;;;;;8.80;5.33;;;9.30;1.00;;;;;;6129936;23;20190;-89
2023/05/04 22:17:19;;;;;;;7.37;4.90;;;9.20;1.00;;;;;;6129845;23;20171;-89
2023/05/04 22:19:44;;;;;;;6.53;4.77;;;9.20;1.00;;;;;;6129498;23;20179;-89
2023/05/04 22:22:10;;;;;;;5.57;5.00;;;9.20;1.00;;;;;;6129909;23;20486;-89
2023/05/04 22:24:36;;;;;;;6.93;4.87;;;9.20;1.00;;;;;;6130062;23;20160;-89
2023/05/04 22:27:02;;;;;;;5.50;5.00;;;9.20;1.00;;;;;;6129900;23;20160;-89
2023/05/04 22:29:27;;;;;;;5.53;4.90;;;9.20;1.00;;;;;;6129857;23;20204;-89
2023/05/04 22:31:53;;;;;;;5.80;5.30;;;9.20;1.00;;;;;;6129460;23;20635;-89
2023/05/04 22:34:18;;;;;;;5.40;4.90;;;9.20;1.00;;;;;;6129711;23;20159;-89
2023/05/04 22:36:45;;;;;;;5.80;5.10;;;9.30;1.00;;;;;;6130114;23;20254;-89
2023/05/04 22:39:11;;;;;;;5.33;4.57;;;9.40;1.00;;;;;;6155864;23;20152;-89
2023/05/04 22:41:36;;;;;;;6.50;4.73;;;9.40;1.00;;;;;;6129739;23;20238;-89
2023/05/04 22:44:02;;;;;;;6.57;5.27;;;9.30;1.00;;;;;;6129639;23;20459;-89
2023/05/04 22:46:27;;;;;;;4.80;4.30;;;9.20;1.00;;;;;;6124599;23;20249;-89
2023/05/04 22:48:53;;;;;;;6.43;4.80;;;9.20;1.00;;;;;;6130089;23;20548;-89
2023/05/04 22:51:19;;;;;;;6.50;4.77;;;9.20;1.00;;;;;;6130092;23;20202;-89
2023/05/04 22:53:44;;;;;;;6.07;4.90;;;9.30;1.00;;;;;;6130070;23;20497;-89
2023/05/04 22:56:10;;;;;;;5.20;4.70;;;9.20;1.00;;;;;;6130130;23;20160;-89
2023/05/04 22:58:36;;;;;;;6.17;4.77;;;10.30;1.00;;;;;;6130205;23;20156;-89
2023/05/04 23:01:01;;;;;;;7.20;4.73;;;9.20;1.00;;;;;;6123319;23;20155;-89
2023/05/04 23:03:27;;;;;;;7.40;4.60;;;9.30;1.00;;;;;;6123199;23;20592;-89
2023/05/04 23:05:52;;;;;;;6.03;4.90;;;9.30;1.00;;;;;;6123419;23;20168;-89
2023/05/04 23:08:18;;;;;;;5.13;4.63;;;9.40;1.00;;;;;;6149581;23;20240;-89
2023/05/04 23:10:44;;;;;;;6.30;4.57;;;9.30;1.00;;;;;;6122761;23;20176;-89
2023/05/04 23:13:10;;;;;;;5.40;4.90;;;9.20;1.00;;;;;;6129121;23;20208;-89
2023/05/04 23:15:36;;;;;;;5.80;5.30;;;9.30;1.00;;;;;;6130259;23;20596;-89
2023/05/04 23:18:01;;;;;;;6.00;4.53;;;9.30;1.00;;;;;;6125170;23;20175;-87
2023/05/04 23:20:27;;;;;;;7.57;5.00;;;9.30;1.00;;;;;;6122479;23;20205;-91
2023/05/04 23:22:52;;;;;;;7.30;5.33;;;9.30;1.00;;;;;;6123100;23;20179;-89
2023/05/04 23:25:18;;;;;;;6.80;5.67;;;9.30;1.00;;;;;;6122181;23;20247;-88
2023/05/04 23:27:44;;;;;;;7.53;5.63;;;9.80;1.00;;;;;;6122761;23;20156;-88
2023/05/04 23:30:10;;;;;;;5.80;5.20;;;9.20;1.00;;;;;;6126222;23;20188;-88
2023/05/04 23:32:35;;;;;;;9.17;5.90;;;9.20;1.00;;;;;;6129964;23;20309;-88
2023/05/04 23:35:01;;;;;;;7.57;6.43;;;9.20;1.00;;;;;;6129885;23;20152;-89
2023/05/04 23:37:30;;;;;;;6.50;4.97;;;9.10;1.00;;;;;;6130206;23;20218;-88
2023/05/04 23:39:56;;;;;;;6.93;5.23;;;9.20;1.00;;;;;;6130004;23;20190;-89
2023/05/04 23:42:27;;;;;;;10.60;6.80;;;9.30;1.00;;;;;;6130010;23;20179;-89
2023/05/04 23:44:54;;;;;;;9.67;6.20;;;9.30;1.00;;;;;;6129833;23;20156;-88
2023/05/04 23:47:20;;;;;;;7.07;5.77;;;9.00;1.00;;;;;;6129630;23;20676;-89
2023/05/04 23:49:46;;;;;;;7.17;6.10;;;9.00;1.00;;;;;;6129920;23;20159;-89
2023/05/04 23:52:11;;;;;;;8.93;5.80;;;8.90;1.00;;;;;;6129615;23;20176;-89
2023/05/04 23:54:37;;;;;;;7.53;6.40;;;9.80;1.00;;;;;;6130001;23;20652;-89
2023/05/04 23:57:02;;;;;;;7.47;6.70;;;9.10;1.00;;;;;;6129841;23;20166;-89
2023/05/04 23:59:28;;;;;;;7.30;6.47;;;9.00;1.00;;;;;;6129869;23;20202;-89
